sensor_id;sensor_type;location;lat;lon;timestamp;P1;durP1;ratioP1;P2;durP2;ratioP2
19038;SDS011;9652;49.014;12.052;2023-04-19T00:00:22;8.70;;;6.90;;
19038;SDS011;9652;49.014;12.052;2023-04-19T00:02:50;12.37;;;7.57;;
19038;SDS011;9652;49.014;12.052;2023-04-19T00:05:18;9.27;;;7.70;;
19038;SDS011;9652;49.014;12.052;2023-04-19T00:07:46;12.13;;;8.23;;
19038;SDS011;9652;49.014;12.052;2023-04-19T00:10:13;12.60;;;8.07;;
19038;SDS011;9652;49.014;12.052;2023-04-19T00:12:41;11.63;;;7.87;;
19038;SDS011;9652;49.014;12.052;2023-04-19T00:15:09;12.67;;;8.23;;
19038;SDS011;9652;49.014;12.052;2023-04-19T00:17:36;10.93;;;8.00;;
19038;SDS011;9652;49.014;12.052;2023-04-19T00:20:03;11.83;;;7.87;;
19038;SDS011;9652;49.014;12.052;2023-04-19T00:22:32;12.73;;;7.73;;
19038;SDS011;9652;49.014;12.052;2023-04-19T00:24:59;11.57;;;8.23;;
19038;SDS011;9652;49.014;12.052;2023-04-19T00:27:27;11.57;;;8.60;;
19038;SDS011;9652;49.014;12.052;2023-04-19T00:29:55;12.43;;;8.50;;
19038;SDS011;9652;49.014;12.052;2023-04-19T00:32:23;12.50;;;8.43;;
19038;SDS011;9652;49.014;12.052;2023-04-19T00:34:51;12.33;;;8.20;;
19038;SDS011;9652;49.014;12.052;2023-04-19T00:37:20;13.30;;;8.97;;
19038;SDS011;9652;49.014;12.052;2023-04-19T00:39:47;13.57;;;9.10;;
19038;SDS011;9652;49.014;12.052;2023-04-19T00:42:14;11.93;;;8.47;;
19038;SDS011;9652;49.014;12.052;2023-04-19T00:44:41;12.93;;;8.70;;
19038;SDS011;9652;49.014;12.052;2023-04-19T00:47:10;15.00;;;8.37;;
19038;SDS011;9652;49.014;12.052;2023-04-19T00:49:39;13.17;;;8.87;;
19038;SDS011;9652;49.014;12.052;2023-04-19T00:52:06;13.33;;;8.90;;
19038;SDS011;9652;49.014;12.052;2023-04-19T00:54:35;13.07;;;9.07;;
19038;SDS011;9652;49.014;12.052;2023-04-19T00:57:05;12.13;;;7.83;;
19038;SDS011;9652;49.014;12.052;2023-04-19T00:59:32;13.80;;;8.97;;
19038;SDS011;9652;49.014;12.052;2023-04-19T01:02:02;13.83;;;8.90;;
19038;SDS011;9652;49.014;12.052;2023-04-19T01:04:30;11.80;;;8.80;;
19038;SDS011;9652;49.014;12.052;2023-04-19T01:06:57;12.53;;;9.17;;
19038;SDS011;9652;49.014;12.052;2023-04-19T01:09:24;12.47;;;9.50;;
19038;SDS011;9652;49.014;12.052;2023-04-19T01:11:52;13.43;;;8.83;;
19038;SDS011;9652;49.014;12.052;2023-04-19T01:14:19;14.63;;;10.00;;
19038;SDS011;9652;49.014;12.052;2023-04-19T01:16:46;13.83;;;9.47;;
19038;SDS011;9652;49.014;12.052;2023-04-19T01:19:13;14.37;;;8.37;;
19038;SDS011;9652;49.014;12.052;2023-04-19T01:21:42;12.63;;;8.87;;
19038;SDS011;9652;49.014;12.052;2023-04-19T01:24:11;12.47;;;8.27;;
19038;SDS011;9652;49.014;12.052;2023-04-19T01:26:39;11.83;;;8.50;;
19038;SDS011;9652;49.014;12.052;2023-04-19T01:29:06;13.07;;;7.57;;
19038;SDS011;9652;49.014;12.052;2023-04-19T01:31:33;12.60;;;9.23;;
19038;SDS011;9652;49.014;12.052;2023-04-19T01:34:02;15.63;;;9.30;;
19038;SDS011;9652;49.014;12.052;2023-04-19T01:36:29;12.77;;;8.37;;
19038;SDS011;9652;49.014;12.052;2023-04-19T01:38:56;13.33;;;9.10;;
19038;SDS011;9652;49.014;12.052;2023-04-19T01:41:25;17.43;;;9.77;;
19038;SDS011;9652;49.014;12.052;2023-04-19T01:43:53;15.13;;;9.47;;
19038;SDS011;9652;49.014;12.052;2023-04-19T01:46:20;12.17;;;9.17;;
19038;SDS011;9652;49.014;12.052;2023-04-19T01:48:47;15.37;;;9.27;;
19038;SDS011;9652;49.014;12.052;2023-04-19T01:51:14;13.47;;;9.63;;
19038;SDS011;9652;49.014;12.052;2023-04-19T01:53:42;12.63;;;9.30;;
19038;SDS011;9652;49.014;12.052;2023-04-19T01:56:09;14.27;;;10.33;;
19038;SDS011;9652;49.014;12.052;2023-04-19T01:58:38;14.40;;;10.17;;
19038;SDS011;9652;49.014;12.052;2023-04-19T02:01:05;14.83;;;9.67;;
19038;SDS011;9652;49.014;12.052;2023-04-19T02:03:36;13.90;;;9.57;;
19038;SDS011;9652;49.014;12.052;2023-04-19T02:06:03;11.97;;;8.57;;
19038;SDS011;9652;49.014;12.052;2023-04-19T02:08:31;14.13;;;9.23;;
19038;SDS011;9652;49.014;12.052;2023-04-19T02:10:58;15.20;;;9.07;;
19038;SDS011;9652;49.014;12.052;2023-04-19T02:13:26;13.23;;;8.43;;
19038;SDS011;9652;49.014;12.052;2023-04-19T02:15:54;14.00;;;9.10;;
19038;SDS011;9652;49.014;12.052;2023-04-19T02:18:21;12.17;;;8.43;;
19038;SDS011;9652;49.014;12.052;2023-04-19T02:20:50;14.90;;;8.47;;
19038;SDS011;9652;49.014;12.052;2023-04-19T02:23:18;12.17;;;8.70;;
19038;SDS011;9652;49.014;12.052;2023-04-19T02:25:45;12.30;;;8.80;;
19038;SDS011;9652;49.014;12.052;2023-04-19T02:28:13;11.83;;;8.70;;
19038;SDS011;9652;49.014;12.052;2023-04-19T02:30:40;13.67;;;9.23;;
19038;SDS011;9652;49.014;12.052;2023-04-19T02:33:08;15.07;;;9.40;;
19038;SDS011;9652;49.014;12.052;2023-04-19T02:35:36;12.83;;;8.40;;
19038;SDS011;9652;49.014;12.052;2023-04-19T02:38:03;13.57;;;9.03;;
19038;SDS011;9652;49.014;12.052;2023-04-19T02:40:31;15.70;;;9.73;;
19038;SDS011;9652;49.014;12.052;2023-04-19T02:42:58;11.47;;;8.47;;
19038;SDS011;9652;49.014;12.052;2023-04-19T02:45:25;12.70;;;9.27;;
19038;SDS011;9652;49.014;12.052;2023-04-19T02:47:53;14.93;;;10.17;;
19038;SDS011;9652;49.014;12.052;2023-04-19T02:50:23;13.70;;;9.87;;
19038;SDS011;9652;49.014;12.052;2023-04-19T02:52:52;15.23;;;10.03;;
19038;SDS011;9652;49.014;12.052;2023-04-19T02:55:21;15.97;;;9.53;;
19038;SDS011;9652;49.014;12.052;2023-04-19T02:57:57;11.90;;;8.33;;
19038;SDS011;9652;49.014;12.052;2023-04-19T03:00:24;13.57;;;10.00;;
19038;SDS011;9652;49.014;12.052;2023-04-19T03:03:01;13.80;;;9.30;;
19038;SDS011;9652;49.014;12.052;2023-04-19T03:05:32;13.70;;;9.87;;
19038;SDS011;9652;49.014;12.052;2023-04-19T03:07:59;16.17;;;10.10;;
19038;SDS011;9652;49.014;12.052;2023-04-19T03:10:26;14.57;;;10.43;;
19038;SDS011;9652;49.014;12.052;2023-04-19T03:12:53;14.83;;;9.90;;
19038;SDS011;9652;49.014;12.052;2023-04-19T03:15:20;14.43;;;9.50;;
19038;SDS011;9652;49.014;12.052;2023-04-19T03:17:48;13.60;;;9.63;;
19038;SDS011;9652;49.014;12.052;2023-04-19T03:20:16;13.90;;;10.20;;
19038;SDS011;9652;49.014;12.052;2023-04-19T03:22:46;15.63;;;9.80;;
19038;SDS011;9652;49.014;12.052;2023-04-19T03:25:13;17.17;;;10.90;;
19038;SDS011;9652;49.014;12.052;2023-04-19T03:27:46;12.77;;;8.67;;
19038;SDS011;9652;49.014;12.052;2023-04-19T03:30:17;13.40;;;9.83;;
19038;SDS011;9652;49.014;12.052;2023-04-19T03:32:45;13.87;;;9.03;;
19038;SDS011;9652;49.014;12.052;2023-04-19T03:35:14;12.87;;;9.10;;
19038;SDS011;9652;49.014;12.052;2023-04-19T03:37:42;13.00;;;9.13;;
19038;SDS011;9652;49.014;12.052;2023-04-19T03:40:11;12.97;;;9.63;;
19038;SDS011;9652;49.014;12.052;2023-04-19T03:42:38;17.03;;;9.63;;
19038;SDS011;9652;49.014;12.052;2023-04-19T03:45:11;12.10;;;8.90;;
19038;SDS011;9652;49.014;12.052;2023-04-19T03:47:43;13.77;;;9.73;;
19038;SDS011;9652;49.014;12.052;2023-04-19T03:50:11;14.27;;;9.10;;
19038;SDS011;9652;49.014;12.052;2023-04-19T03:52:40;13.37;;;9.63;;
19038;SDS011;9652;49.014;12.052;2023-04-19T03:55:13;12.90;;;9.23;;
19038;SDS011;9652;49.014;12.052;2023-04-19T03:57:40;13.50;;;9.33;;
19038;SDS011;9652;49.014;12.052;2023-04-19T04:00:29;12.17;;;9.13;;
19038;SDS011;9652;49.014;12.052;2023-04-19T04:02:59;11.93;;;8.33;;
19038;SDS011;9652;49.014;12.052;2023-04-19T04:05:26;11.97;;;8.53;;
19038;SDS011;9652;49.014;12.052;2023-04-19T04:07:53;14.90;;;9.43;;
19038;SDS011;9652;49.014;12.052;2023-04-19T04:10:23;14.57;;;9.80;;
19038;SDS011;9652;49.014;12.052;2023-04-19T04:12:51;13.93;;;9.17;;
19038;SDS011;9652;49.014;12.052;2023-04-19T04:15:24;12.50;;;8.83;;
19038;SDS011;9652;49.014;12.052;2023-04-19T04:17:52;14.17;;;9.87;;
19038;SDS011;9652;49.014;12.052;2023-04-19T04:20:20;14.97;;;10.57;;
19038;SDS011;9652;49.014;12.052;2023-04-19T04:22:49;12.87;;;9.80;;
19038;SDS011;9652;49.014;12.052;2023-04-19T04:25:18;12.10;;;8.83;;
19038;SDS011;9652;49.014;12.052;2023-04-19T04:27:49;12.57;;;8.57;;
19038;SDS011;9652;49.014;12.052;2023-04-19T04:30:18;12.93;;;9.23;;
19038;SDS011;9652;49.014;12.052;2023-04-19T04:32:46;11.83;;;8.50;;
19038;SDS011;9652;49.014;12.052;2023-04-19T04:35:15;12.87;;;9.70;;
19038;SDS011;9652;49.014;12.052;2023-04-19T04:37:50;13.90;;;9.93;;
19038;SDS011;9652;49.014;12.052;2023-04-19T04:40:19;18.73;;;10.93;;
19038;SDS011;9652;49.014;12.052;2023-04-19T04:42:48;17.10;;;10.10;;
19038;SDS011;9652;49.014;12.052;2023-04-19T04:45:17;14.77;;;10.03;;
19038;SDS011;9652;49.014;12.052;2023-04-19T04:47:44;19.20;;;10.37;;
19038;SDS011;9652;49.014;12.052;2023-04-19T04:50:12;14.73;;;10.17;;
19038;SDS011;9652;49.014;12.052;2023-04-19T04:52:39;12.10;;;9.70;;
19038;SDS011;9652;49.014;12.052;2023-04-19T04:55:17;13.23;;;9.90;;
19038;SDS011;9652;49.014;12.052;2023-04-19T04:57:47;13.27;;;9.70;;
19038;SDS011;9652;49.014;12.052;2023-04-19T05:00:21;12.57;;;9.47;;
19038;SDS011;9652;49.014;12.052;2023-04-19T05:02:56;14.03;;;10.43;;
19038;SDS011;9652;49.014;12.052;2023-04-19T05:05:24;13.43;;;8.87;;
19038;SDS011;9652;49.014;12.052;2023-04-19T05:07:51;16.37;;;9.63;;
19038;SDS011;9652;49.014;12.052;2023-04-19T05:10:19;14.30;;;10.00;;
19038;SDS011;9652;49.014;12.052;2023-04-19T05:12:48;15.27;;;9.50;;
19038;SDS011;9652;49.014;12.052;2023-04-19T05:15:15;14.80;;;10.00;;
19038;SDS011;9652;49.014;12.052;2023-04-19T05:17:47;13.33;;;9.83;;
19038;SDS011;9652;49.014;12.052;2023-04-19T05:20:14;17.27;;;10.33;;
19038;SDS011;9652;49.014;12.052;2023-04-19T05:22:43;15.63;;;9.80;;
19038;SDS011;9652;49.014;12.052;2023-04-19T05:25:11;11.87;;;8.47;;
19038;SDS011;9652;49.014;12.052;2023-04-19T05:27:38;13.13;;;9.73;;
19038;SDS011;9652;49.014;12.052;2023-04-19T05:30:09;14.40;;;10.30;;
19038;SDS011;9652;49.014;12.052;2023-04-19T05:32:40;16.17;;;9.97;;
19038;SDS011;9652;49.014;12.052;2023-04-19T05:35:10;14.10;;;9.50;;
19038;SDS011;9652;49.014;12.052;2023-04-19T05:37:37;14.87;;;10.20;;
19038;SDS011;9652;49.014;12.052;2023-04-19T05:40:06;14.40;;;9.90;;
19038;SDS011;9652;49.014;12.052;2023-04-19T05:42:34;13.47;;;8.83;;
19038;SDS011;9652;49.014;12.052;2023-04-19T05:45:02;14.60;;;9.87;;
19038;SDS011;9652;49.014;12.052;2023-04-19T05:47:32;13.97;;;10.47;;
19038;SDS011;9652;49.014;12.052;2023-04-19T05:50:14;15.13;;;9.90;;
19038;SDS011;9652;49.014;12.052;2023-04-19T05:52:53;12.87;;;8.80;;
19038;SDS011;9652;49.014;12.052;2023-04-19T05:55:20;11.83;;;9.00;;
19038;SDS011;9652;49.014;12.052;2023-04-19T05:57:49;12.83;;;9.00;;
19038;SDS011;9652;49.014;12.052;2023-04-19T06:00:17;12.37;;;9.70;;
19038;SDS011;9652;49.014;12.052;2023-04-19T06:02:55;14.30;;;9.80;;
19038;SDS011;9652;49.014;12.052;2023-04-19T06:05:23;14.90;;;9.20;;
19038;SDS011;9652;49.014;12.052;2023-04-19T06:07:50;16.63;;;9.73;;
19038;SDS011;9652;49.014;12.052;2023-04-19T06:10:20;15.10;;;10.03;;
19038;SDS011;9652;49.014;12.052;2023-04-19T06:12:47;14.40;;;9.37;;
19038;SDS011;9652;49.014;12.052;2023-04-19T06:15:14;16.00;;;9.43;;
19038;SDS011;9652;49.014;12.052;2023-04-19T06:17:42;15.70;;;9.77;;
19038;SDS011;9652;49.014;12.052;2023-04-19T06:20:11;16.97;;;10.47;;
19038;SDS011;9652;49.014;12.052;2023-04-19T06:22:41;14.60;;;9.93;;
19038;SDS011;9652;49.014;12.052;2023-04-19T06:25:10;18.43;;;10.77;;
19038;SDS011;9652;49.014;12.052;2023-04-19T06:27:37;19.50;;;10.93;;
19038;SDS011;9652;49.014;12.052;2023-04-19T06:30:04;16.03;;;10.60;;
19038;SDS011;9652;49.014;12.052;2023-04-19T06:32:33;16.20;;;10.63;;
19038;SDS011;9652;49.014;12.052;2023-04-19T06:35:00;14.87;;;10.47;;
19038;SDS011;9652;49.014;12.052;2023-04-19T06:37:30;13.10;;;9.23;;
19038;SDS011;9652;49.014;12.052;2023-04-19T06:39:59;14.27;;;9.53;;
19038;SDS011;9652;49.014;12.052;2023-04-19T06:42:26;16.00;;;10.27;;
19038;SDS011;9652;49.014;12.052;2023-04-19T06:44:53;11.93;;;8.43;;
19038;SDS011;9652;49.014;12.052;2023-04-19T06:47:21;13.17;;;9.57;;
19038;SDS011;9652;49.014;12.052;2023-04-19T06:49:48;13.17;;;9.50;;
19038;SDS011;9652;49.014;12.052;2023-04-19T06:52:15;12.93;;;8.87;;
19038;SDS011;9652;49.014;12.052;2023-04-19T06:54:47;14.23;;;9.87;;
19038;SDS011;9652;49.014;12.052;2023-04-19T06:57:14;11.57;;;8.87;;
19038;SDS011;9652;49.014;12.052;2023-04-19T06:59:41;15.23;;;9.53;;
19038;SDS011;9652;49.014;12.052;2023-04-19T07:02:08;13.33;;;9.67;;
19038;SDS011;9652;49.014;12.052;2023-04-19T07:04:36;12.00;;;8.37;;
19038;SDS011;9652;49.014;12.052;2023-04-19T07:07:03;12.03;;;8.47;;
19038;SDS011;9652;49.014;12.052;2023-04-19T07:09:30;12.03;;;8.20;;
19038;SDS011;9652;49.014;12.052;2023-04-19T07:11:58;11.77;;;8.50;;
19038;SDS011;9652;49.014;12.052;2023-04-19T07:14:25;11.87;;;7.93;;
19038;SDS011;9652;49.014;12.052;2023-04-19T07:16:52;12.93;;;8.60;;
19038;SDS011;9652;49.014;12.052;2023-04-19T07:19:20;13.53;;;8.37;;
19038;SDS011;9652;49.014;12.052;2023-04-19T07:21:47;13.73;;;8.77;;
19038;SDS011;9652;49.014;12.052;2023-04-19T07:24:15;11.43;;;9.03;;
19038;SDS011;9652;49.014;12.052;2023-04-19T07:26:43;12.87;;;8.20;;
19038;SDS011;9652;49.014;12.052;2023-04-19T07:29:11;12.10;;;8.60;;
19038;SDS011;9652;49.014;12.052;2023-04-19T07:31:38;12.40;;;8.73;;
19038;SDS011;9652;49.014;12.052;2023-04-19T07:34:06;13.93;;;9.07;;
19038;SDS011;9652;49.014;12.052;2023-04-19T07:36:34;11.93;;;8.70;;
19038;SDS011;9652;49.014;12.052;2023-04-19T07:39:02;14.33;;;9.33;;
19038;SDS011;9652;49.014;12.052;2023-04-19T07:41:30;10.60;;;7.57;;
19038;SDS011;9652;49.014;12.052;2023-04-19T07:43:57;12.40;;;9.30;;
19038;SDS011;9652;49.014;12.052;2023-04-19T07:46:26;12.80;;;9.30;;
19038;SDS011;9652;49.014;12.052;2023-04-19T07:48:53;13.37;;;9.10;;
19038;SDS011;9652;49.014;12.052;2023-04-19T07:51:20;13.53;;;9.27;;
19038;SDS011;9652;49.014;12.052;2023-04-19T07:53:48;16.77;;;10.63;;
19038;SDS011;9652;49.014;12.052;2023-04-19T07:56:16;16.30;;;9.93;;
19038;SDS011;9652;49.014;12.052;2023-04-19T07:58:44;14.10;;;10.23;;
19038;SDS011;9652;49.014;12.052;2023-04-19T08:01:11;13.20;;;10.03;;
19038;SDS011;9652;49.014;12.052;2023-04-19T08:03:39;15.20;;;10.50;;
19038;SDS011;9652;49.014;12.052;2023-04-19T08:06:06;13.83;;;10.80;;
19038;SDS011;9652;49.014;12.052;2023-04-19T08:08:34;14.03;;;9.70;;
19038;SDS011;9652;49.014;12.052;2023-04-19T08:11:01;13.10;;;10.37;;
19038;SDS011;9652;49.014;12.052;2023-04-19T08:13:30;12.30;;;9.27;;
19038;SDS011;9652;49.014;12.052;2023-04-19T08:15:57;13.90;;;9.47;;
19038;SDS011;9652;49.014;12.052;2023-04-19T08:18:24;14.20;;;9.77;;
19038;SDS011;9652;49.014;12.052;2023-04-19T08:20:53;12.83;;;9.03;;
19038;SDS011;9652;49.014;12.052;2023-04-19T08:23:20;14.07;;;9.33;;
19038;SDS011;9652;49.014;12.052;2023-04-19T08:25:48;13.57;;;9.67;;
19038;SDS011;9652;49.014;12.052;2023-04-19T08:28:15;14.93;;;9.00;;
19038;SDS011;9652;49.014;12.052;2023-04-19T08:30:43;12.63;;;8.77;;
19038;SDS011;9652;49.014;12.052;2023-04-19T08:33:10;11.80;;;8.50;;
19038;SDS011;9652;49.014;12.052;2023-04-19T08:35:37;11.93;;;8.83;;
19038;SDS011;9652;49.014;12.052;2023-04-19T08:38:06;11.53;;;8.40;;
19038;SDS011;9652;49.014;12.052;2023-04-19T08:40:33;15.87;;;9.70;;
19038;SDS011;9652;49.014;12.052;2023-04-19T08:43:04;13.13;;;9.87;;
19038;SDS011;9652;49.014;12.052;2023-04-19T08:45:32;16.23;;;11.87;;
19038;SDS011;9652;49.014;12.052;2023-04-19T08:48:00;14.53;;;9.50;;
19038;SDS011;9652;49.014;12.052;2023-04-19T08:50:28;14.93;;;10.00;;
19038;SDS011;9652;49.014;12.052;2023-04-19T08:52:57;11.60;;;8.53;;
19038;SDS011;9652;49.014;12.052;2023-04-19T08:55:26;10.83;;;8.27;;
19038;SDS011;9652;49.014;12.052;2023-04-19T08:57:55;11.30;;;8.47;;
19038;SDS011;9652;49.014;12.052;2023-04-19T09:00:23;14.37;;;9.23;;
19038;SDS011;9652;49.014;12.052;2023-04-19T09:02:50;12.30;;;8.53;;
19038;SDS011;9652;49.014;12.052;2023-04-19T09:05:19;13.63;;;9.23;;
19038;SDS011;9652;49.014;12.052;2023-04-19T09:07:46;13.07;;;8.83;;
19038;SDS011;9652;49.014;12.052;2023-04-19T09:10:14;13.63;;;8.73;;
19038;SDS011;9652;49.014;12.052;2023-04-19T09:12:57;12.87;;;9.40;;
19038;SDS011;9652;49.014;12.052;2023-04-19T09:15:34;10.10;;;7.60;;
19038;SDS011;9652;49.014;12.052;2023-04-19T09:18:03;11.30;;;8.40;;
19038;SDS011;9652;49.014;12.052;2023-04-19T09:20:36;13.30;;;8.63;;
19038;SDS011;9652;49.014;12.052;2023-04-19T09:23:06;13.10;;;8.27;;
19038;SDS011;9652;49.014;12.052;2023-04-19T09:25:36;12.73;;;8.53;;
19038;SDS011;9652;49.014;12.052;2023-04-19T09:28:11;13.23;;;9.47;;
19038;SDS011;9652;49.014;12.052;2023-04-19T09:30:40;13.47;;;9.40;;
19038;SDS011;9652;49.014;12.052;2023-04-19T09:33:07;13.93;;;9.67;;
19038;SDS011;9652;49.014;12.052;2023-04-19T09:35:41;11.70;;;9.10;;
19038;SDS011;9652;49.014;12.052;2023-04-19T09:38:10;12.60;;;9.50;;
19038;SDS011;9652;49.014;12.052;2023-04-19T09:40:38;12.50;;;9.07;;
19038;SDS011;9652;49.014;12.052;2023-04-19T09:43:06;12.30;;;9.30;;
19038;SDS011;9652;49.014;12.052;2023-04-19T09:45:41;12.53;;;8.70;;
19038;SDS011;9652;49.014;12.052;2023-04-19T09:48:11;11.30;;;8.20;;
19038;SDS011;9652;49.014;12.052;2023-04-19T09:50:49;9.93;;;7.67;;
19038;SDS011;9652;49.014;12.052;2023-04-19T09:53:20;11.77;;;8.07;;
19038;SDS011;9652;49.014;12.052;2023-04-19T09:55:49;10.47;;;7.40;;
19038;SDS011;9652;49.014;12.052;2023-04-19T09:58:17;10.27;;;7.13;;
19038;SDS011;9652;49.014;12.052;2023-04-19T10:00:47;7.97;;;6.20;;
19038;SDS011;9652;49.014;12.052;2023-04-19T10:03:16;9.20;;;6.97;;
19038;SDS011;9652;49.014;12.052;2023-04-19T10:05:46;8.73;;;6.63;;
19038;SDS011;9652;49.014;12.052;2023-04-19T10:08:14;9.57;;;7.40;;
19038;SDS011;9652;49.014;12.052;2023-04-19T10:10:42;9.07;;;7.00;;
19038;SDS011;9652;49.014;12.052;2023-04-19T10:13:14;10.37;;;7.00;;
19038;SDS011;9652;49.014;12.052;2023-04-19T10:15:48;8.53;;;6.87;;
19038;SDS011;9652;49.014;12.052;2023-04-19T10:18:16;9.00;;;7.07;;
19038;SDS011;9652;49.014;12.052;2023-04-19T10:20:46;9.03;;;7.10;;
19038;SDS011;9652;49.014;12.052;2023-04-19T10:23:19;10.57;;;7.80;;
19038;SDS011;9652;49.014;12.052;2023-04-19T10:25:54;8.53;;;6.30;;
19038;SDS011;9652;49.014;12.052;2023-04-19T10:28:23;8.57;;;6.80;;
19038;SDS011;9652;49.014;12.052;2023-04-19T10:30:55;9.67;;;6.70;;
19038;SDS011;9652;49.014;12.052;2023-04-19T10:33:26;8.77;;;7.27;;
19038;SDS011;9652;49.014;12.052;2023-04-19T10:35:56;9.23;;;7.13;;
19038;SDS011;9652;49.014;12.052;2023-04-19T10:38:34;11.73;;;8.43;;
19038;SDS011;9652;49.014;12.052;2023-04-19T10:41:04;9.57;;;7.10;;
19038;SDS011;9652;49.014;12.052;2023-04-19T10:43:36;10.50;;;7.80;;
19038;SDS011;9652;49.014;12.052;2023-04-19T10:46:09;9.93;;;7.70;;
19038;SDS011;9652;49.014;12.052;2023-04-19T10:48:51;9.07;;;7.07;;
19038;SDS011;9652;49.014;12.052;2023-04-19T10:51:23;9.47;;;7.43;;
19038;SDS011;9652;49.014;12.052;2023-04-19T10:53:54;9.30;;;7.53;;
19038;SDS011;9652;49.014;12.052;2023-04-19T10:59:24;7.97;;;6.80;;
19038;SDS011;9652;49.014;12.052;2023-04-19T11:01:56;9.33;;;6.97;;
19038;SDS011;9652;49.014;12.052;2023-04-19T11:07:35;8.07;;;6.07;;
19038;SDS011;9652;49.014;12.052;2023-04-19T11:10:07;9.53;;;7.10;;
19038;SDS011;9652;49.014;12.052;2023-04-19T11:12:36;7.10;;;6.00;;
19038;SDS011;9652;49.014;12.052;2023-04-19T11:15:08;8.53;;;7.40;;
19038;SDS011;9652;49.014;12.052;2023-04-19T11:17:37;9.23;;;7.13;;
19038;SDS011;9652;49.014;12.052;2023-04-19T11:20:06;6.97;;;5.60;;
19038;SDS011;9652;49.014;12.052;2023-04-19T11:22:36;7.17;;;5.70;;
19038;SDS011;9652;49.014;12.052;2023-04-19T11:25:10;7.70;;;6.03;;
19038;SDS011;9652;49.014;12.052;2023-04-19T11:27:38;7.70;;;6.07;;
19038;SDS011;9652;49.014;12.052;2023-04-19T11:30:08;6.77;;;6.07;;
19038;SDS011;9652;49.014;12.052;2023-04-19T11:32:39;7.23;;;6.07;;
19038;SDS011;9652;49.014;12.052;2023-04-19T11:35:12;7.50;;;6.03;;
19038;SDS011;9652;49.014;12.052;2023-04-19T11:37:40;7.07;;;6.20;;
19038;SDS011;9652;49.014;12.052;2023-04-19T11:40:07;6.73;;;5.77;;
19038;SDS011;9652;49.014;12.052;2023-04-19T11:42:39;6.60;;;5.57;;
19038;SDS011;9652;49.014;12.052;2023-04-19T11:45:07;6.07;;;5.40;;
19038;SDS011;9652;49.014;12.052;2023-04-19T11:47:46;7.60;;;6.03;;
19038;SDS011;9652;49.014;12.052;2023-04-19T11:50:30;6.47;;;5.07;;
19038;SDS011;9652;49.014;12.052;2023-04-19T11:53:10;5.60;;;5.00;;
19038;SDS011;9652;49.014;12.052;2023-04-19T11:55:43;7.17;;;5.87;;
19038;SDS011;9652;49.014;12.052;2023-04-19T11:58:25;7.30;;;5.53;;
19038;SDS011;9652;49.014;12.052;2023-04-19T12:00:55;5.60;;;5.00;;
19038;SDS011;9652;49.014;12.052;2023-04-19T12:03:29;7.93;;;6.07;;
19038;SDS011;9652;49.014;12.052;2023-04-19T12:05:57;6.10;;;5.07;;
19038;SDS011;9652;49.014;12.052;2023-04-19T12:08:31;6.53;;;5.33;;
19038;SDS011;9652;49.014;12.052;2023-04-19T12:11:01;5.97;;;5.37;;
19038;SDS011;9652;49.014;12.052;2023-04-19T12:13:30;6.07;;;5.50;;
19038;SDS011;9652;49.014;12.052;2023-04-19T12:15:57;7.17;;;5.70;;
19038;SDS011;9652;49.014;12.052;2023-04-19T12:18:25;5.97;;;4.80;;
19038;SDS011;9652;49.014;12.052;2023-04-19T12:20:54;6.87;;;5.17;;
19038;SDS011;9652;49.014;12.052;2023-04-19T12:23:21;6.40;;;5.80;;
19038;SDS011;9652;49.014;12.052;2023-04-19T12:25:48;6.17;;;5.20;;
19038;SDS011;9652;49.014;12.052;2023-04-19T12:28:15;6.73;;;5.33;;
19038;SDS011;9652;49.014;12.052;2023-04-19T12:30:42;7.33;;;5.40;;
19038;SDS011;9652;49.014;12.052;2023-04-19T12:33:09;7.20;;;5.50;;
19038;SDS011;9652;49.014;12.052;2023-04-19T12:35:36;7.20;;;5.63;;
19038;SDS011;9652;49.014;12.052;2023-04-19T12:38:05;7.93;;;5.63;;
19038;SDS011;9652;49.014;12.052;2023-04-19T12:40:33;6.67;;;4.67;;
19038;SDS011;9652;49.014;12.052;2023-04-19T12:43:00;7.13;;;5.17;;
19038;SDS011;9652;49.014;12.052;2023-04-19T12:45:27;6.97;;;5.77;;
19038;SDS011;9652;49.014;12.052;2023-04-19T12:47:54;6.03;;;5.37;;
19038;SDS011;9652;49.014;12.052;2023-04-19T12:50:21;5.90;;;5.30;;
19038;SDS011;9652;49.014;12.052;2023-04-19T12:52:49;6.17;;;4.97;;
19038;SDS011;9652;49.014;12.052;2023-04-19T12:55:19;7.47;;;5.67;;
19038;SDS011;9652;49.014;12.052;2023-04-19T12:57:46;7.13;;;5.40;;
19038;SDS011;9652;49.014;12.052;2023-04-19T13:00:13;6.90;;;5.53;;
19038;SDS011;9652;49.014;12.052;2023-04-19T13:02:41;7.43;;;5.60;;
19038;SDS011;9652;49.014;12.052;2023-04-19T13:05:08;6.30;;;5.60;;
19038;SDS011;9652;49.014;12.052;2023-04-19T13:07:37;7.37;;;5.67;;
19038;SDS011;9652;49.014;12.052;2023-04-19T13:10:04;7.57;;;5.80;;
19038;SDS011;9652;49.014;12.052;2023-04-19T13:12:34;8.63;;;6.10;;
19038;SDS011;9652;49.014;12.052;2023-04-19T13:15:01;8.37;;;6.50;;
19038;SDS011;9652;49.014;12.052;2023-04-19T13:17:29;7.67;;;5.70;;
19038;SDS011;9652;49.014;12.052;2023-04-19T13:19:56;6.97;;;6.27;;
19038;SDS011;9652;49.014;12.052;2023-04-19T13:22:23;7.97;;;5.80;;
19038;SDS011;9652;49.014;12.052;2023-04-19T13:24:51;8.67;;;6.33;;
19038;SDS011;9652;49.014;12.052;2023-04-19T13:27:18;6.70;;;5.53;;
19038;SDS011;9652;49.014;12.052;2023-04-19T13:29:47;7.70;;;5.87;;
19038;SDS011;9652;49.014;12.052;2023-04-19T13:32:14;6.03;;;4.83;;
19038;SDS011;9652;49.014;12.052;2023-04-19T13:34:41;6.03;;;5.27;;
19038;SDS011;9652;49.014;12.052;2023-04-19T13:37:08;7.07;;;5.93;;
19038;SDS011;9652;49.014;12.052;2023-04-19T13:39:35;8.10;;;5.60;;
19038;SDS011;9652;49.014;12.052;2023-04-19T13:42:02;5.80;;;4.80;;
19038;SDS011;9652;49.014;12.052;2023-04-19T13:44:30;7.27;;;5.37;;
19038;SDS011;9652;49.014;12.052;2023-04-19T13:46:58;6.90;;;5.40;;
19038;SDS011;9652;49.014;12.052;2023-04-19T13:49:25;6.50;;;5.50;;
19038;SDS011;9652;49.014;12.052;2023-04-19T13:51:52;7.00;;;5.37;;
19038;SDS011;9652;49.014;12.052;2023-04-19T13:54:19;7.33;;;5.63;;
19038;SDS011;9652;49.014;12.052;2023-04-19T13:56:47;6.10;;;5.50;;
19038;SDS011;9652;49.014;12.052;2023-04-19T13:59:14;5.80;;;4.90;;
19038;SDS011;9652;49.014;12.052;2023-04-19T14:01:41;6.10;;;4.87;;
19038;SDS011;9652;49.014;12.052;2023-04-19T14:04:09;5.80;;;4.73;;
19038;SDS011;9652;49.014;12.052;2023-04-19T14:06:36;4.70;;;4.20;;
19038;SDS011;9652;49.014;12.052;2023-04-19T14:09:03;5.60;;;4.77;;
19038;SDS011;9652;49.014;12.052;2023-04-19T14:11:31;5.30;;;4.63;;
19038;SDS011;9652;49.014;12.052;2023-04-19T14:13:58;6.73;;;5.00;;
19038;SDS011;9652;49.014;12.052;2023-04-19T14:16:25;6.47;;;5.07;;
19038;SDS011;9652;49.014;12.052;2023-04-19T14:18:52;5.50;;;3.50;;
19038;SDS011;9652;49.014;12.052;2023-04-19T14:21:21;4.70;;;3.90;;
19038;SDS011;9652;49.014;12.052;2023-04-19T14:23:48;4.50;;;4.07;;
19038;SDS011;9652;49.014;12.052;2023-04-19T14:26:15;4.43;;;3.83;;
19038;SDS011;9652;49.014;12.052;2023-04-19T14:28:42;6.27;;;4.67;;
19038;SDS011;9652;49.014;12.052;2023-04-19T14:31:09;4.43;;;3.67;;
19038;SDS011;9652;49.014;12.052;2023-04-19T14:33:36;4.87;;;3.83;;
19038;SDS011;9652;49.014;12.052;2023-04-19T14:36:03;3.80;;;3.23;;
19038;SDS011;9652;49.014;12.052;2023-04-19T14:38:33;4.27;;;3.17;;
19038;SDS011;9652;49.014;12.052;2023-04-19T14:41:00;5.87;;;3.63;;
19038;SDS011;9652;49.014;12.052;2023-04-19T14:43:28;3.40;;;2.97;;
19038;SDS011;9652;49.014;12.052;2023-04-19T14:45:55;3.13;;;2.63;;
19038;SDS011;9652;49.014;12.052;2023-04-19T14:48:22;2.63;;;2.30;;
19038;SDS011;9652;49.014;12.052;2023-04-19T14:50:49;5.03;;;3.10;;
19038;SDS011;9652;49.014;12.052;2023-04-19T14:53:16;3.23;;;2.80;;